Keene, NH (03431)

7:46 PM EST on December 10, 2016 (GMT -0500)
Court St. | | Change Station
Active Advisory: Winter Storm Watch

Elev 522 ft 42.94 °N, 72.29 °W | Updated 12 seconds ago

Partly Cloudy
Partly Cloudy
11.2 °F
Feels Like 11 °F
N
0.0
Wind Variable Wind from SW

Today
High -- | Low -- °F
--% Chance of Precip.
Yesterday
High -- | Low -- °F
Precip. -- in
Pressure 30.43 in
Visibility 10.0 miles
Clouds Few 3800 ft
Windchill 11 °F
Dew Point 4 °F
Humidity 75%
Rainfall 0.00 in
Snow Depth Not available.
7:09 AM 4:14 PM
Waxing Gibbous, 87% visible
METAR KEEN 102356Z AUTO 00000KT 10SM FEW038 M09/M13 A3036 RMK AO2 SLP302 60001 T10941133 11033 21100 51018 FZRANO
Pressure 30.43 in
Visibility 10.0 miles
Clouds Few 3800 ft
Windchill 11 °F
Dew Point 4 °F
Humidity 75%
Rainfall 0.00 in
Snow Depth Not available.
7:09 AM 4:14 PM
Waxing Gibbous, 87% visible
METAR KEEN 102356Z AUTO 00000KT 10SM FEW038 M09/M13 A3036 RMK AO2 SLP302 60001 T10941133 11033 21100 51018 FZRANO

10-Day Weather Forecast

Almanac

Astronomy

Dec. 10, 2016 Rise Set
Actual Time
Civil Twilight
Nautical Twilight
Astronomical Twilight
Moon
Length of Visible Light
Length of Day
Tomorrow will be .
, % of the Moon is Illuminated

Today's Extremes

State Highs State Lows

Community

WunderPhotos

Upload Photos

1,956,685 photos uploaded!

WunderBlog® & News

Nearby

Air Quality

  Air Quality AQ Index Pollutant
Not available.

Snow Depth

Station Depth Elevation

Earthquake Activity

City Distance Mag. Time & Date
Minimum magnitude displayed is 2.5.

Coastal Water Temperatures

Place Temperature

Stations

Nearby Weather Stations

Station Location Temp. Windchill Dew Point Humidity Wind Precip. Elev Updated Type
                   

Watches & Warnings

Winter Storm Watch
Issued: 3:06 PM EST Dec. 10, 2016 – National Weather Service

... Winter Storm Watch in effect from Sunday evening through
Monday evening...

The National Weather Service in gray has issued a Winter Storm
Watch... which is in effect from Sunday evening through Monday
evening.

* Hazard types... snow. Snow may be heavy at times in the early
morning and mix with or change to sleet in the afternoon.

* Accumulations... snow and sleet accumulation of 5 to 8
inches... along with around a trace of ice.

* Timing... snow will begin late Sunday night and continue through
Monday.

* Impacts... snow will make for hazardous travel conditions

* winds... south 5 to 10 mph.

* Temperatures... around 30.

* Visibilities... one quarter mile or less at times.

Precautionary/preparedness actions...

A Winter Storm Watch means there is a potential for significant
snow... sleet... or ice accumulations that may impact travel.
Continue to monitor the latest forecasts.